createdAt,value
2018-04-10T00:00:24.525Z,995.78
2018-04-10T00:00:50.661Z,995.77
2018-04-10T00:01:16.821Z,995.78
2018-04-10T00:01:42.968Z,995.79
2018-04-10T00:02:09.110Z,995.76
2018-04-10T00:02:35.252Z,995.76
2018-04-10T00:03:01.390Z,995.79
2018-04-10T00:03:27.554Z,995.8
2018-04-10T00:03:53.688Z,995.79
2018-04-10T00:04:19.835Z,995.83
2018-04-10T00:04:45.994Z,995.78
2018-04-10T00:05:12.136Z,995.74
2018-04-10T00:05:38.271Z,995.79
2018-04-10T00:06:04.418Z,995.78
2018-04-10T00:06:30.577Z,995.78
2018-04-10T00:06:56.722Z,995.78
2018-04-10T00:07:22.897Z,995.76
2018-04-10T00:07:49.034Z,995.79
2018-04-10T00:08:15.201Z,995.79
2018-04-10T00:08:41.362Z,995.82
2018-04-10T00:09:07.531Z,995.81
2018-04-10T00:09:33.666Z,995.85
2018-04-10T00:09:59.831Z,995.87
2018-04-10T00:10:25.972Z,995.78
2018-04-10T00:10:52.116Z,995.8
2018-04-10T00:11:18.257Z,995.83
2018-04-10T00:11:44.398Z,995.85
2018-04-10T00:12:10.539Z,995.81
2018-04-10T00:12:36.687Z,995.82
2018-04-10T00:13:02.860Z,995.76
2018-04-10T00:13:28.999Z,995.81
2018-04-10T00:13:55.166Z,995.8
2018-04-10T00:14:21.309Z,995.8
2018-04-10T00:14:47.452Z,995.83
2018-04-10T00:15:13.619Z,995.81
2018-04-10T00:15:39.766Z,995.79
2018-04-10T00:16:05.904Z,995.85
2018-04-10T00:16:32.072Z,995.85
2018-04-10T00:16:58.219Z,995.84
2018-04-10T00:17:24.360Z,995.82
2018-04-10T00:17:50.493Z,995.87
2018-04-10T00:18:16.673Z,995.85
2018-04-10T00:18:42.812Z,995.86
2018-04-10T00:19:08.974Z,995.82
2018-04-10T00:19:35.117Z,995.86
2018-04-10T00:20:01.266Z,995.82
2018-04-10T00:20:27.405Z,995.85
2018-04-10T00:20:53.547Z,995.88
2018-04-10T00:21:19.712Z,995.85
2018-04-10T00:21:45.855Z,995.83
2018-04-10T00:22:12.053Z,995.85
2018-04-10T00:22:38.215Z,995.86
2018-04-10T00:23:04.356Z,995.87
2018-04-10T00:23:30.499Z,995.87
2018-04-10T00:23:56.636Z,995.89
2018-04-10T00:24:22.801Z,995.86
2018-04-10T00:24:48.945Z,995.89
2018-04-10T00:25:15.090Z,995.86
2018-04-10T00:25:41.229Z,995.87
2018-04-10T00:26:07.373Z,995.82
2018-04-10T00:26:33.514Z,995.86
2018-04-10T00:26:59.655Z,995.88
2018-04-10T00:27:25.822Z,995.84
2018-04-10T00:27:52.009Z,995.79
2018-04-10T00:28:18.150Z,995.86
2018-04-10T00:28:44.316Z,995.82
2018-04-10T00:29:10.483Z,995.86
2018-04-10T00:29:36.625Z,995.84
2018-04-10T00:30:02.770Z,995.84
2018-04-10T00:30:28.906Z,995.83
2018-04-10T00:30:55.055Z,995.82
2018-04-10T00:31:21.193Z,995.84
2018-04-10T00:31:47.353Z,995.85
2018-04-10T00:32:13.520Z,995.81
2018-04-10T00:32:39.683Z,995.86
2018-04-10T00:33:05.829Z,995.84
2018-04-10T00:33:31.967Z,995.9
2018-04-10T00:33:58.104Z,995.86
2018-04-10T00:34:24.296Z,995.82
2018-04-10T00:34:50.433Z,995.85
2018-04-10T00:35:16.574Z,995.81
2018-04-10T00:35:42.745Z,995.85
2018-04-10T00:36:08.878Z,995.82
2018-04-10T00:36:35.020Z,995.82
2018-04-10T00:37:01.160Z,995.81
2018-04-10T00:37:27.302Z,995.8
2018-04-10T00:37:53.439Z,995.84
2018-04-10T00:38:19.578Z,995.81
2018-04-10T00:38:45.719Z,995.85
2018-04-10T00:39:11.855Z,995.85
2018-04-10T00:39:38.000Z,995.84
2018-04-10T00:40:04.169Z,995.81
2018-04-10T00:40:30.324Z,995.82
2018-04-10T00:40:56.461Z,995.82
2018-04-10T00:41:22.605Z,995.84
2018-04-10T00:41:48.741Z,995.82
2018-04-10T00:42:14.905Z,995.81
2018-04-10T00:42:41.068Z,995.83
2018-04-10T00:43:07.206Z,995.88
2018-04-10T00:43:33.342Z,995.81
2018-04-10T00:43:59.489Z,995.81
2018-04-10T00:44:25.641Z,995.78
2018-04-10T00:44:51.778Z,995.81
2018-04-10T00:45:17.939Z,995.82
2018-04-10T00:45:44.083Z,995.78
2018-04-10T00:46:10.215Z,995.8
2018-04-10T00:46:36.356Z,995.79
2018-04-10T00:47:02.491Z,995.82
2018-04-10T00:47:28.631Z,995.86
2018-04-10T00:47:54.776Z,995.85
2018-04-10T00:48:20.914Z,995.82
2018-04-10T00:48:47.056Z,995.82
2018-04-10T00:49:13.194Z,995.83
2018-04-10T00:49:39.334Z,995.82
2018-04-10T00:50:05.481Z,995.85
2018-04-10T00:50:31.624Z,995.86
2018-04-10T00:50:57.789Z,995.84
2018-04-10T00:51:23.939Z,995.85
2018-04-10T00:51:50.075Z,995.83
2018-04-10T00:52:16.216Z,995.8
2018-04-10T00:52:42.361Z,995.79
2018-04-10T00:53:08.504Z,995.81
2018-04-10T00:53:34.640Z,995.83
2018-04-10T00:54:00.789Z,995.84
2018-04-10T00:54:26.932Z,995.84
2018-04-10T00:54:53.066Z,995.86
2018-04-10T00:55:19.237Z,995.83
2018-04-10T00:55:45.370Z,995.83
2018-04-10T00:56:11.507Z,995.85
2018-04-10T00:56:37.650Z,995.84
2018-04-10T00:57:03.787Z,995.84
2018-04-10T00:57:29.931Z,995.8
2018-04-10T00:57:56.069Z,995.81
2018-04-10T00:58:22.207Z,995.87
2018-04-10T00:58:48.351Z,995.84
2018-04-10T00:59:14.489Z,995.84
2018-04-10T00:59:40.658Z,995.85
2018-04-10T01:00:06.825Z,995.89
2018-04-10T01:00:32.969Z,995.87
2018-04-10T01:00:59.114Z,995.84
2018-04-10T01:01:25.249Z,995.88
2018-04-10T01:01:51.384Z,995.86
2018-04-10T01:02:17.530Z,995.89
2018-04-10T01:02:43.673Z,995.84
2018-04-10T01:03:09.835Z,995.83
2018-04-10T01:03:35.999Z,995.88
2018-04-10T01:04:02.168Z,995.84
2018-04-10T01:04:28.309Z,995.85
2018-04-10T01:04:54.446Z,995.85
2018-04-10T01:05:20.586Z,995.88
2018-04-10T01:05:46.727Z,995.86
2018-04-10T01:06:12.888Z,995.9
2018-04-10T01:06:39.027Z,995.87
2018-04-10T01:07:05.164Z,995.88
2018-04-10T01:07:31.316Z,995.9
2018-04-10T01:07:57.451Z,995.89
2018-04-10T01:08:23.587Z,995.85
2018-04-10T01:08:49.728Z,995.85
2018-04-10T01:09:15.867Z,995.84
2018-04-10T01:09:42.011Z,995.85
2018-04-10T01:10:08.154Z,995.84
2018-04-10T01:10:34.293Z,995.82
2018-04-10T01:11:00.458Z,995.82
2018-04-10T01:11:26.603Z,995.83
2018-04-10T01:11:52.739Z,995.79
2018-04-10T01:12:18.884Z,995.84
2018-04-10T01:12:45.063Z,995.84
2018-04-10T01:13:11.203Z,995.85
2018-04-10T01:13:37.343Z,995.82
2018-04-10T01:14:03.481Z,995.89
2018-04-10T01:14:29.619Z,995.86
2018-04-10T01:14:55.767Z,995.82
2018-04-10T01:15:21.902Z,995.89
2018-04-10T01:15:48.097Z,995.88
2018-04-10T01:16:14.244Z,995.92
2018-04-10T01:16:40.386Z,995.9
2018-04-10T01:17:06.523Z,995.91
2018-04-10T01:17:32.665Z,995.92
2018-04-10T01:17:58.800Z,995.92
2018-04-10T01:18:24.940Z,995.96
2018-04-10T01:18:51.081Z,995.96
2018-04-10T01:19:17.224Z,995.96
2018-04-10T01:19:43.363Z,995.97
2018-04-10T01:20:09.500Z,995.99
2018-04-10T01:20:35.640Z,995.96
2018-04-10T01:21:01.787Z,995.98
2018-04-10T01:21:27.949Z,995.97
2018-04-10T01:21:54.112Z,996
2018-04-10T01:22:20.253Z,996
2018-04-10T01:22:46.394Z,996
2018-04-10T01:23:12.586Z,995.99
2018-04-10T01:23:38.719Z,995.99
2018-04-10T01:24:04.862Z,995.96
2018-04-10T01:24:31.006Z,995.95
2018-04-10T01:24:57.145Z,995.96
2018-04-10T01:25:23.289Z,995.94
2018-04-10T01:25:49.421Z,995.91
2018-04-10T01:26:15.557Z,995.93
2018-04-10T01:26:41.702Z,995.93
2018-04-10T01:27:07.870Z,995.93
2018-04-10T01:27:34.030Z,995.9
2018-04-10T01:28:00.167Z,995.87
2018-04-10T01:28:26.307Z,995.89
2018-04-10T01:28:52.454Z,995.94
2018-04-10T01:29:18.592Z,995.96
2018-04-10T01:29:44.737Z,995.96
2018-04-10T01:30:10.880Z,995.98
2018-04-10T01:30:37.021Z,996.01
2018-04-10T01:31:03.165Z,996.03
2018-04-10T01:31:29.298Z,996.02
2018-04-10T01:31:55.442Z,996.04
2018-04-10T01:32:21.582Z,996.05
2018-04-10T01:32:47.716Z,996.06
2018-04-10T01:33:13.852Z,996.06
2018-04-10T01:33:39.999Z,996.08
2018-04-10T01:34:06.139Z,996.05
2018-04-10T01:34:32.302Z,996.05
2018-04-10T01:34:58.450Z,996.07
2018-04-10T01:35:24.594Z,996.07
2018-04-10T01:35:50.737Z,996.07
2018-04-10T01:36:16.874Z,996.05
2018-04-10T01:36:43.018Z,996.07
2018-04-10T01:37:09.179Z,996.03
2018-04-10T01:37:35.315Z,996.06
2018-04-10T01:38:01.459Z,996.05
2018-04-10T01:38:27.617Z,996.06
2018-04-10T01:38:53.760Z,996.08
2018-04-10T01:39:19.899Z,996.08
2018-04-10T01:39:46.039Z,996.05
2018-04-10T01:40:12.201Z,996.08
2018-04-10T01:40:38.360Z,996.07
2018-04-10T01:41:04.494Z,996.07
2018-04-10T01:41:30.635Z,996.09
2018-04-10T01:41:56.770Z,996.09
2018-04-10T01:42:22.914Z,996.14
2018-04-10T01:42:49.055Z,996.13
2018-04-10T01:43:15.196Z,996.12
2018-04-10T01:43:41.333Z,996.11
2018-04-10T01:44:07.481Z,996.12
2018-04-10T01:44:33.617Z,996.14
2018-04-10T01:44:59.760Z,996.12
2018-04-10T01:45:25.906Z,996.15
2018-04-10T01:45:52.045Z,996.15
2018-04-10T01:46:18.188Z,996.13
2018-04-10T01:46:44.318Z,996.15
2018-04-10T01:47:10.463Z,996.1
2018-04-10T01:47:36.604Z,996.12
2018-04-10T01:48:02.747Z,996.09
2018-04-10T01:48:28.888Z,996.07
2018-04-10T01:48:55.026Z,996.08
2018-04-10T01:49:21.163Z,996.09
2018-04-10T01:49:47.320Z,996.06
2018-04-10T01:50:13.461Z,996.08
2018-04-10T01:50:39.597Z,996.06
2018-04-10T01:51:05.732Z,996.08
2018-04-10T01:51:31.871Z,996.1
2018-04-10T01:51:58.012Z,996.08
2018-04-10T01:52:24.187Z,996.1
2018-04-10T01:52:50.323Z,996.13
2018-04-10T01:53:16.464Z,996.09
2018-04-10T01:53:42.606Z,996.12
2018-04-10T01:54:08.746Z,996.12
2018-04-10T01:54:34.879Z,996.12
2018-04-10T01:55:01.017Z,996.1
2018-04-10T01:55:27.157Z,996.12
2018-04-10T01:55:53.299Z,996.1
2018-04-10T01:56:19.440Z,996.12
2018-04-10T01:56:45.587Z,996.11
2018-04-10T01:57:11.721Z,996.08
2018-04-10T01:57:37.886Z,996.13
2018-04-10T01:58:04.024Z,996.09
2018-04-10T01:58:30.167Z,996.09
2018-04-10T01:58:56.337Z,996.11
2018-04-10T01:59:22.482Z,996.13
2018-04-10T01:59:48.618Z,996.1
2018-04-10T02:00:14.759Z,996.12
2018-04-10T02:00:40.928Z,996.14
2018-04-10T02:01:07.071Z,996.15
2018-04-10T02:01:33.227Z,996.14
2018-04-10T02:01:59.367Z,996.17
2018-04-10T02:02:25.507Z,996.16
2018-04-10T02:02:51.645Z,996.13
2018-04-10T02:03:17.786Z,996.13
2018-04-10T02:03:43.955Z,996.18
2018-04-10T02:04:10.094Z,996.21
2018-04-10T02:04:36.229Z,996.23
2018-04-10T02:05:02.370Z,996.22
2018-04-10T02:05:28.505Z,996.22
2018-04-10T02:05:54.650Z,996.25
2018-04-10T02:06:20.788Z,996.24
2018-04-10T02:06:46.930Z,996.25
2018-04-10T02:07:13.076Z,996.27
2018-04-10T02:07:39.213Z,996.24
2018-04-10T02:08:05.357Z,996.26
2018-04-10T02:08:31.516Z,996.28
2018-04-10T02:08:57.661Z,996.33
2018-04-10T02:09:23.793Z,996.31
2018-04-10T02:09:49.932Z,996.3
2018-04-10T02:15:57.446Z,996.29
2018-04-10T02:16:23.585Z,996.22
2018-04-10T02:16:49.725Z,996.21
2018-04-10T02:17:15.878Z,996.24
2018-04-10T02:17:42.009Z,996.18
2018-04-10T02:18:08.160Z,996.2
2018-04-10T02:18:34.324Z,996.17
2018-04-10T02:19:00.465Z,996.15
2018-04-10T02:19:26.602Z,996.18
2018-04-10T02:19:52.743Z,996.15
2018-04-10T02:20:18.901Z,996.17
2018-04-10T02:20:45.042Z,996.19
2018-04-10T02:21:11.191Z,996.18
2018-04-10T02:21:37.332Z,996.17
2018-04-10T02:22:03.474Z,996.16
2018-04-10T02:22:29.640Z,996.15
2018-04-10T02:22:55.782Z,996.15
2018-04-10T02:23:21.921Z,996.13
2018-04-10T02:23:48.083Z,996.12
2018-04-10T02:24:14.217Z,996.11
2018-04-10T02:24:40.358Z,996.16
2018-04-10T02:25:06.535Z,996.16
2018-04-10T02:25:32.644Z,996.19
2018-04-10T02:25:58.787Z,996.19
2018-04-10T02:26:24.927Z,996.19
2018-04-10T02:26:51.091Z,996.18
2018-04-10T02:27:17.233Z,996.19
2018-04-10T02:27:43.397Z,996.17
2018-04-10T02:28:09.535Z,996.18
2018-04-10T02:28:35.669Z,996.2
2018-04-10T02:29:01.816Z,996.19
2018-04-10T02:29:27.954Z,996.21
2018-04-10T02:29:54.120Z,996.22
2018-04-10T02:30:20.264Z,996.16
2018-04-10T02:30:46.419Z,996.22
2018-04-10T02:31:12.562Z,996.22
2018-04-10T02:31:38.694Z,996.18
2018-04-10T02:32:04.847Z,996.14
2018-04-10T02:32:31.001Z,996.08
2018-04-10T02:32:57.141Z,996.07
2018-04-10T02:33:23.302Z,996.04
2018-04-10T02:33:49.447Z,996
2018-04-10T02:34:15.610Z,995.98
2018-04-10T02:34:41.744Z,996.02
2018-04-10T02:35:07.886Z,995.95
2018-04-10T02:35:34.054Z,995.94
2018-04-10T02:36:00.190Z,995.99
2018-04-10T02:36:26.354Z,995.98
2018-04-10T02:36:52.518Z,996.02
2018-04-10T02:37:18.657Z,995.99
2018-04-10T02:37:44.798Z,996
2018-04-10T02:38:10.940Z,996.03
2018-04-10T02:38:37.101Z,995.98
2018-04-10T02:39:03.247Z,995.98
2018-04-10T02:39:29.388Z,995.94
2018-04-10T02:39:55.527Z,995.94
2018-04-10T02:40:21.666Z,995.96
2018-04-10T02:40:47.812Z,995.94
2018-04-10T02:41:13.949Z,995.93
2018-04-10T02:41:40.083Z,995.94
2018-04-10T02:42:06.254Z,995.97
2018-04-10T02:42:32.416Z,995.93
2018-04-10T02:42:58.560Z,995.99
2018-04-10T02:43:24.694Z,996.01
2018-04-10T02:43:50.867Z,996.04
2018-04-10T02:44:17.023Z,996.07
2018-04-10T02:44:43.189Z,996.1
2018-04-10T02:45:09.332Z,996.14
2018-04-10T02:45:35.494Z,996.17
2018-04-10T02:46:01.659Z,996.16
2018-04-10T02:46:27.818Z,996.26
2018-04-10T02:46:53.952Z,996.29
2018-04-10T02:47:20.098Z,996.28
2018-04-10T02:47:46.240Z,996.29
2018-04-10T02:48:12.407Z,996.28
2018-04-10T02:48:38.567Z,996.26
2018-04-10T02:49:04.707Z,996.25
2018-04-10T02:49:30.847Z,996.29
2018-04-10T02:49:57.016Z,996.27
2018-04-10T02:50:23.182Z,996.27
2018-04-10T02:50:49.322Z,996.23
2018-04-10T02:51:15.482Z,996.21
2018-04-10T02:51:41.620Z,996.21
2018-04-10T02:52:07.784Z,996.17
2018-04-10T02:52:33.916Z,996.21
2018-04-10T02:53:00.055Z,996.21
2018-04-10T02:53:26.194Z,996.2
2018-04-10T02:53:52.340Z,996.2
2018-04-10T02:54:18.477Z,996.22
2018-04-10T02:54:44.619Z,996.21
2018-04-10T02:55:10.757Z,996.19
2018-04-10T02:55:36.924Z,996.27
2018-04-10T02:56:03.065Z,996.24
2018-04-10T02:56:29.199Z,996.21
2018-04-10T02:56:55.338Z,996.22
2018-04-10T02:57:21.502Z,996.25
2018-04-10T02:57:47.640Z,996.21
2018-04-10T02:58:13.776Z,996.23
2018-04-10T02:58:39.942Z,996.25
2018-04-10T02:59:06.104Z,996.26
2018-04-10T02:59:32.247Z,996.25
2018-04-10T02:59:58.435Z,996.23
2018-04-10T03:00:24.569Z,996.25
2018-04-10T03:00:50.709Z,996.2
2018-04-10T03:01:16.851Z,996.21
2018-04-10T03:01:43.001Z,996.22
2018-04-10T03:02:09.157Z,996.21
2018-04-10T03:02:35.304Z,996.16
2018-04-10T03:03:01.461Z,996.17
2018-04-10T03:03:27.601Z,996.17
2018-04-10T03:03:53.744Z,996.18
2018-04-10T03:04:19.885Z,996.16
2018-04-10T03:04:46.029Z,996.2
2018-04-10T03:05:12.184Z,996.18
2018-04-10T03:05:38.333Z,996.19
2018-04-10T03:06:04.469Z,996.21
2018-04-10T03:06:30.612Z,996.22
2018-04-10T03:06:56.781Z,996.23
2018-04-10T03:07:22.922Z,996.25
2018-04-10T03:07:49.083Z,996.24
2018-04-10T03:08:15.227Z,996.26
2018-04-10T03:08:41.364Z,996.24
2018-04-10T03:09:07.501Z,996.22
2018-04-10T03:09:33.641Z,996.21
2018-04-10T03:09:59.808Z,996.23
2018-04-10T03:10:25.952Z,996.24
2018-04-10T03:10:52.093Z,996.19
2018-04-10T03:11:18.235Z,996.21
2018-04-10T03:11:44.373Z,996.19
2018-04-10T03:12:10.543Z,996.18
2018-04-10T03:12:36.679Z,996.19
2018-04-10T03:13:02.823Z,996.19
2018-04-10T03:13:28.957Z,996.2
2018-04-10T03:13:55.118Z,996.16
2018-04-10T03:14:21.257Z,996.22
2018-04-10T03:14:47.423Z,996.21
2018-04-10T03:15:13.565Z,996.25
2018-04-10T03:15:39.698Z,996.24
2018-04-10T03:16:05.839Z,996.26
2018-04-10T03:16:31.986Z,996.23
2018-04-10T03:16:58.138Z,996.3
2018-04-10T03:17:24.281Z,996.29
2018-04-10T03:17:50.421Z,996.3
2018-04-10T03:18:16.567Z,996.28
2018-04-10T03:18:42.723Z,996.34
2018-04-10T03:19:08.868Z,996.33
2018-04-10T03:19:35.006Z,996.38
2018-04-10T03:20:01.141Z,996.36
2018-04-10T03:20:27.308Z,996.34
2018-04-10T03:20:53.465Z,996.37
2018-04-10T03:21:19.631Z,996.4
2018-04-10T03:21:45.763Z,996.39
2018-04-10T03:22:11.906Z,996.39
2018-04-10T03:22:38.047Z,996.4
2018-04-10T03:23:04.179Z,996.4
2018-04-10T03:23:30.316Z,996.42
2018-04-10T03:23:56.458Z,996.45
2018-04-10T03:24:22.631Z,996.4
2018-04-10T03:24:48.797Z,996.42
2018-04-10T03:25:14.938Z,996.41
2018-04-10T03:25:41.081Z,996.41
2018-04-10T03:26:07.219Z,996.4
2018-04-10T03:26:33.360Z,996.43
2018-04-10T03:26:59.526Z,996.38
2018-04-10T03:27:25.688Z,996.4
2018-04-10T03:27:51.825Z,996.41
2018-04-10T03:28:17.970Z,996.4
2018-04-10T03:28:44.102Z,996.44
2018-04-10T03:29:10.247Z,996.4
2018-04-10T03:29:36.403Z,996.41
2018-04-10T03:30:02.552Z,996.39
2018-04-10T03:30:28.691Z,996.4
2018-04-10T03:30:54.853Z,996.42
2018-04-10T03:31:20.994Z,996.42
2018-04-10T03:31:47.132Z,996.43
2018-04-10T03:32:13.272Z,996.4
2018-04-10T03:32:39.414Z,996.37
2018-04-10T03:33:05.553Z,996.39
2018-04-10T03:33:31.694Z,996.43
2018-04-10T03:33:57.836Z,996.42
2018-04-10T03:34:23.999Z,996.41
2018-04-10T03:34:50.138Z,996.42
2018-04-10T03:35:16.273Z,996.42
2018-04-10T03:35:42.437Z,996.44
2018-04-10T03:36:08.606Z,996.4
2018-04-10T03:36:34.743Z,996.43
2018-04-10T03:37:00.880Z,996.42
2018-04-10T03:37:27.020Z,996.43
2018-04-10T03:37:53.160Z,996.42
2018-04-10T03:38:19.299Z,996.41
2018-04-10T03:38:45.439Z,996.38
2018-04-10T03:39:11.583Z,996.4
2018-04-10T03:39:37.722Z,996.41
2018-04-10T03:40:03.865Z,996.43
2018-04-10T03:40:29.999Z,996.47
2018-04-10T03:40:56.138Z,996.41
2018-04-10T03:41:22.282Z,996.4
2018-04-10T03:41:48.417Z,996.43
2018-04-10T03:42:14.556Z,996.42
2018-04-10T03:42:40.690Z,996.42
2018-04-10T03:43:06.832Z,996.46
2018-04-10T03:43:32.997Z,996.45
2018-04-10T03:43:59.137Z,996.44
2018-04-10T03:44:25.325Z,996.44
2018-04-10T03:44:51.459Z,996.42
2018-04-10T03:45:17.599Z,996.42
2018-04-10T03:45:43.745Z,996.47
2018-04-10T03:46:09.935Z,996.42
2018-04-10T03:46:36.098Z,996.42
2018-04-10T03:47:02.269Z,996.45
2018-04-10T03:47:28.405Z,996.43
2018-04-10T03:47:54.589Z,996.45
2018-04-10T03:48:20.681Z,996.45
2018-04-10T03:48:46.822Z,996.46
2018-04-10T03:49:12.960Z,996.46
2018-04-10T03:49:39.099Z,996.43
2018-04-10T03:50:05.243Z,996.47
2018-04-10T03:50:31.389Z,996.45
2018-04-10T03:50:57.551Z,996.48
2018-04-10T03:51:23.684Z,996.46
2018-04-10T03:51:49.825Z,996.45
2018-04-10T03:52:15.965Z,996.45
2018-04-10T03:52:42.111Z,996.44
2018-04-10T03:53:08.272Z,996.45
2018-04-10T03:53:34.432Z,996.44
2018-04-10T03:54:00.576Z,996.44
2018-04-10T03:54:26.710Z,996.44
2018-04-10T03:54:52.843Z,996.4
2018-04-10T03:55:18.989Z,996.43
2018-04-10T03:55:45.197Z,996.41
2018-04-10T03:56:11.288Z,996.47
2018-04-10T03:56:37.430Z,996.46
2018-04-10T03:57:03.569Z,996.48
2018-04-10T03:57:29.703Z,996.5
2018-04-10T03:57:55.844Z,996.45
2018-04-10T03:58:22.013Z,996.5
2018-04-10T03:58:48.154Z,996.51
2018-04-10T03:59:14.294Z,996.5
2018-04-10T03:59:40.438Z,996.49
2018-04-10T04:00:06.581Z,996.49
2018-04-10T04:00:32.718Z,996.53
2018-04-10T04:00:58.862Z,996.48
2018-04-10T04:01:24.998Z,996.46
2018-04-10T04:01:51.134Z,996.48
2018-04-10T04:02:17.275Z,996.5
2018-04-10T04:02:43.415Z,996.48
2018-04-10T04:03:09.549Z,996.47
2018-04-10T04:03:35.695Z,996.43
2018-04-10T04:04:01.827Z,996.5
2018-04-10T04:04:27.967Z,996.47
2018-04-10T04:04:54.126Z,996.47
2018-04-10T04:05:20.264Z,996.47
2018-04-10T04:05:46.428Z,996.46
2018-04-10T04:06:12.571Z,996.48
2018-04-10T04:06:38.751Z,996.49
2018-04-10T04:07:04.894Z,996.42
2018-04-10T04:07:31.055Z,996.46
2018-04-10T04:07:57.202Z,996.46
2018-04-10T04:08:23.337Z,996.47
2018-04-10T04:08:49.474Z,996.45
2018-04-10T04:09:15.639Z,996.49
2018-04-10T04:09:41.782Z,996.43
2018-04-10T04:10:07.918Z,996.47
2018-04-10T04:10:34.059Z,996.45
2018-04-10T04:11:00.231Z,996.47
2018-04-10T04:11:26.365Z,996.49
2018-04-10T04:11:52.504Z,996.47
2018-04-10T04:12:18.671Z,996.44
2018-04-10T04:12:44.837Z,996.49
2018-04-10T04:13:10.971Z,996.51
2018-04-10T04:13:37.109Z,996.48
2018-04-10T04:14:03.247Z,996.52
2018-04-10T04:14:29.389Z,996.52
2018-04-10T04:14:55.536Z,996.52
2018-04-10T04:15:21.665Z,996.54
2018-04-10T04:15:47.809Z,996.49
2018-04-10T04:16:13.949Z,996.51
2018-04-10T04:16:40.085Z,996.51
2018-04-10T04:17:06.255Z,996.46
2018-04-10T04:17:32.400Z,996.52
2018-04-10T04:17:58.542Z,996.49
2018-04-10T04:18:24.675Z,996.5
2018-04-10T04:18:50.816Z,996.47
2018-04-10T04:19:16.959Z,996.49
2018-04-10T04:19:43.095Z,996.52
2018-04-10T04:20:09.237Z,996.54
2018-04-10T04:20:35.378Z,996.52
2018-04-10T04:21:01.533Z,996.52
2018-04-10T04:21:27.707Z,996.52
2018-04-10T04:21:53.845Z,996.56
2018-04-10T04:22:19.985Z,996.54
2018-04-10T04:22:46.117Z,996.52
2018-04-10T04:23:12.260Z,996.57
2018-04-10T04:23:38.401Z,996.51
2018-04-10T04:24:04.541Z,996.54
2018-04-10T04:24:30.704Z,996.55
2018-04-10T04:24:56.844Z,996.54
2018-04-10T04:25:22.985Z,996.57
2018-04-10T04:25:49.125Z,996.56
2018-04-10T04:26:15.269Z,996.55
2018-04-10T04:26:41.409Z,996.56
2018-04-10T04:27:07.551Z,996.56
2018-04-10T04:27:33.690Z,996.58
2018-04-10T04:27:59.824Z,996.6
2018-04-10T04:28:25.967Z,996.58
2018-04-10T04:28:52.103Z,996.59
2018-04-10T04:29:18.248Z,996.61
2018-04-10T04:29:44.391Z,996.61
2018-04-10T04:30:10.527Z,996.6
2018-04-10T04:30:36.667Z,996.59
2018-04-10T04:31:02.808Z,996.6
2018-04-10T04:31:28.952Z,996.64
2018-04-10T04:31:55.126Z,996.67
2018-04-10T04:32:21.248Z,996.67
2018-04-10T04:32:47.391Z,996.67
2018-04-10T04:33:13.530Z,996.68
2018-04-10T04:33:39.668Z,996.72
2018-04-10T04:34:05.805Z,996.7
2018-04-10T04:34:31.943Z,996.7
2018-04-10T04:34:58.081Z,996.74
2018-04-10T04:35:24.227Z,996.73
2018-04-10T04:35:50.367Z,996.72
2018-04-10T04:36:16.532Z,996.72
2018-04-10T04:36:42.673Z,996.72
2018-04-10T04:37:08.813Z,996.72
2018-04-10T04:37:34.972Z,996.73
2018-04-10T04:38:01.116Z,996.73
2018-04-10T04:38:27.275Z,996.72
2018-04-10T04:38:53.437Z,996.76
2018-04-10T04:39:19.573Z,996.74
2018-04-10T04:39:45.719Z,996.75
2018-04-10T04:40:11.858Z,996.74
2018-04-10T04:40:38.001Z,996.72
2018-04-10T04:41:04.134Z,996.73
2018-04-10T04:41:30.280Z,996.74
2018-04-10T04:41:56.421Z,996.74
2018-04-10T04:42:22.562Z,996.71
2018-04-10T04:42:48.708Z,996.71
2018-04-10T04:43:14.844Z,996.75
2018-04-10T04:43:41.010Z,996.69
2018-04-10T04:44:07.148Z,996.75
2018-04-10T04:44:33.296Z,996.73
2018-04-10T04:44:59.454Z,996.72
2018-04-10T04:45:25.594Z,996.74
2018-04-10T04:45:51.761Z,996.77
2018-04-10T04:46:17.900Z,996.77
2018-04-10T04:46:44.045Z,996.78
2018-04-10T04:47:10.204Z,996.74
2018-04-10T04:47:36.347Z,996.77
2018-04-10T04:48:02.485Z,996.78
2018-04-10T04:48:28.619Z,996.79
2018-04-10T04:48:54.765Z,996.76
2018-04-10T04:49:20.903Z,996.76
2018-04-10T04:49:47.060Z,996.79
2018-04-10T04:50:13.204Z,996.83
2018-04-10T04:50:39.338Z,996.81
2018-04-10T04:51:05.479Z,996.83
2018-04-10T04:51:31.625Z,996.79
2018-04-10T04:51:57.786Z,996.81
2018-04-10T04:52:23.898Z,996.78
2018-04-10T04:52:50.038Z,996.79
2018-04-10T04:53:16.179Z,996.8
2018-04-10T04:53:42.326Z,996.8
2018-04-10T04:54:08.457Z,996.81
2018-04-10T04:54:34.605Z,996.75
2018-04-10T04:55:00.743Z,996.79
2018-04-10T04:55:26.882Z,996.79
2018-04-10T04:55:53.022Z,996.83
2018-04-10T04:56:19.162Z,996.8
2018-04-10T04:56:45.313Z,996.84
2018-04-10T04:57:11.448Z,996.83
2018-04-10T04:57:37.588Z,996.87
2018-04-10T04:58:03.734Z,996.87
2018-04-10T04:58:29.867Z,996.86
2018-04-10T04:58:56.010Z,996.92
2018-04-10T04:59:22.150Z,996.9
2018-04-10T04:59:48.313Z,996.89
2018-04-10T05:00:14.478Z,996.9
2018-04-10T05:00:40.641Z,996.91
2018-04-10T05:01:06.783Z,996.93
2018-04-10T05:01:32.919Z,996.91
2018-04-10T05:01:59.056Z,996.9
2018-04-10T05:02:25.205Z,996.94
2018-04-10T05:02:51.392Z,996.93
2018-04-10T05:03:17.532Z,996.92
2018-04-10T05:03:43.668Z,996.95
2018-04-10T05:04:09.808Z,996.96
2018-04-10T05:04:35.947Z,996.95
2018-04-10T05:05:02.085Z,996.99
2018-04-10T05:05:28.252Z,997.01
2018-04-10T05:05:54.385Z,996.99
2018-04-10T05:06:20.525Z,997
2018-04-10T05:06:46.693Z,997.01
2018-04-10T05:07:12.861Z,997.04
2018-04-10T05:07:39.022Z,997.03
2018-04-10T05:08:05.161Z,997.04
2018-04-10T05:08:31.303Z,997.05
2018-04-10T05:08:57.442Z,997.07
2018-04-10T05:09:23.582Z,997.04
2018-04-10T05:09:49.716Z,997.08
2018-04-10T05:10:15.868Z,997.07
2018-04-10T05:10:42.026Z,997.11
2018-04-10T05:11:08.169Z,997.12
2018-04-10T05:11:34.342Z,997.09
2018-04-10T05:12:00.485Z,997.13
2018-04-10T05:12:26.625Z,997.12
2018-04-10T05:12:52.794Z,997.16
2018-04-10T05:13:18.936Z,997.18
2018-04-10T05:13:45.083Z,997.18
2018-04-10T05:14:11.220Z,997.18
2018-04-10T05:14:37.358Z,997.21
2018-04-10T05:15:03.500Z,997.21
2018-04-10T05:15:29.642Z,997.25
2018-04-10T05:15:55.813Z,997.22
2018-04-10T05:16:21.947Z,997.22
2018-04-10T05:16:48.088Z,997.22
2018-04-10T05:17:14.231Z,997.24
2018-04-10T05:17:40.362Z,997.21
2018-04-10T05:18:06.505Z,997.24
2018-04-10T05:18:32.641Z,997.21
2018-04-10T05:18:58.785Z,997.22
2018-04-10T05:19:24.946Z,997.2
2018-04-10T05:19:51.111Z,997.24
2018-04-10T05:20:17.246Z,997.24
2018-04-10T05:20:43.393Z,997.22
2018-04-10T05:21:09.556Z,997.22
2018-04-10T05:21:35.695Z,997.2
2018-04-10T05:22:01.841Z,997.25
2018-04-10T05:22:27.982Z,997.24
2018-04-10T05:22:54.147Z,997.24
2018-04-10T05:23:20.291Z,997.25
2018-04-10T05:23:46.432Z,997.27
2018-04-10T05:24:12.577Z,997.25
2018-04-10T05:24:38.739Z,997.28
2018-04-10T05:25:04.880Z,997.29
2018-04-10T05:25:31.021Z,997.27
2018-04-10T05:25:57.155Z,997.27
2018-04-10T05:26:23.294Z,997.28
2018-04-10T05:26:49.434Z,997.28
2018-04-10T05:27:15.597Z,997.3
2018-04-10T05:27:41.735Z,997.29
2018-04-10T05:28:07.870Z,997.31
2018-04-10T05:28:34.009Z,997.32
2018-04-10T05:29:00.142Z,997.31
2018-04-10T05:29:26.283Z,997.31
2018-04-10T05:29:52.467Z,997.32
2018-04-10T05:30:18.565Z,997.35
2018-04-10T05:30:44.703Z,997.34
2018-04-10T05:31:10.845Z,997.31
2018-04-10T05:31:36.983Z,997.32
2018-04-10T05:32:03.119Z,997.36
2018-04-10T05:32:29.259Z,997.35
2018-04-10T05:32:55.436Z,997.36
2018-04-10T05:33:21.572Z,997.39